»·PEaware :: N529B KAPV-KBFL

N529B :: KAPV-KBFL

FLIGHT INFORMATION

Flight Status: Arrived
Operator: Privately registered:
United States
More flights under this callsign
Pilot: Kim B. (19519)
Aircraft: Unknown
(B29)
More flights by this aircraft type
Origin: KAPV Apple Valley
United States
Destination: KBFL Meadows
United States
More flights between these airports :: More routes between these airports
Route: +EXCON1 PMD FASTO2
File this flight plan on PilotEdge
Remarks:
Altitude:
(Current/Filed)
12,000ft
Speed:
(Current/Filed)
180kts
Departed: 22-Sep-18 03:19 PM
Arrived: 22-Sep-18 04:16 PM
Distance/Time
Traveled:
105nm/0:57
Distance/Time
To Go:
Arrived

Flight Plot

Page will automatically refresh every two minutes.

Flight plan parsing failed; only flown route is shown


Map Options




Map Legend


Flown Route
Filed Route
Departure Airport
Arrival Airport
Navaid (VOR, NDB)
Fix

Horizontal Profiles

Position Reports

Time Latitude Longitude Heading Altitude Ground
Speed
22-Sep-18 15:06 34.573623 -117.189623 90 3070ft 0kts
22-Sep-18 15:07 34.573623 -117.189623 90 3070ft 0kts
22-Sep-18 15:08 34.573623 -117.189623 89 3070ft 0kts
22-Sep-18 15:09 34.573623 -117.189622 88 3070ft 0kts
22-Sep-18 15:10 34.573623 -117.189622 88 3070ft 0kts
22-Sep-18 15:11 34.573623 -117.189622 88 3070ft 0kts
22-Sep-18 15:12 34.573623 -117.189622 88 3070ft 0kts
22-Sep-18 15:13 34.573623 -117.189622 88 3070ft 0kts
22-Sep-18 15:14 34.573617 -117.189559 97 3070ft 0kts
22-Sep-18 15:15 34.573516 -117.189338 137 3070ft 5kts
22-Sep-18 15:16 34.570721 -117.189423 133 3070ft 0kts
22-Sep-18 15:17 34.570721 -117.189423 133 3070ft 0kts
22-Sep-18 15:18 34.570721 -117.189423 133 3070ft 0kts
22-Sep-18 15:19 34.570498 -117.188615 57 3070ft 2kts
22-Sep-18 15:20 34.570693 -117.188476 16 3070ft 0kts
22-Sep-18 15:21 34.574258 -117.187185 17 3070ft 75kts
22-Sep-18 15:22 34.602321 -117.176337 12 3137ft 108kts
22-Sep-18 15:23 34.576205 -117.186447 16 3070ft 91kts
22-Sep-18 15:24 34.610173 -117.176195 14 3604ft 132kts
22-Sep-18 15:25 34.648524 -117.180408 352 4401ft 138kts
22-Sep-18 15:26 34.684953 -117.186010 351 5063ft 131kts
22-Sep-18 15:27 34.721709 -117.192479 339 5566ft 137kts
22-Sep-18 15:28 34.740399 -117.217557 219 6115ft 128kts
22-Sep-18 15:29 34.705416 -117.216813 170 6488ft 135kts
22-Sep-18 15:30 34.677345 -117.193959 69 6893ft 145kts
22-Sep-18 15:31 34.713980 -117.186739 349 7336ft 155kts
22-Sep-18 15:32 34.735051 -117.219622 221 7777ft 167kts
22-Sep-18 15:33 34.687528 -117.219151 171 8047ft 190kts
22-Sep-18 15:34 34.673622 -117.176909 21 8070ft 201kts
22-Sep-18 15:35 34.728686 -117.192037 350 8041ft 214kts
22-Sep-18 15:36 34.771919 -117.226654 253 8061ft 217kts
22-Sep-18 15:37 34.734256 -117.284145 246 8040ft 226kts
22-Sep-18 15:38 34.712098 -117.356765 250 8032ft 230kts
22-Sep-18 15:39 34.699280 -117.432041 263 8032ft 227kts
22-Sep-18 15:40 34.691453 -117.506835 262 8345ft 212kts
22-Sep-18 15:41 34.684229 -117.575016 262 9193ft 196kts
22-Sep-18 15:42 34.677519 -117.638054 262 10035ft 180kts
22-Sep-18 15:43 34.671397 -117.695271 262 10852ft 161kts
22-Sep-18 15:44 34.665895 -117.746407 262 11500ft 146kts
22-Sep-18 15:45 34.661411 -117.787701 262 11830ft 154kts
22-Sep-18 15:46 34.654286 -117.853606 262 11998ft 182kts
22-Sep-18 15:47 34.647449 -117.916667 262 11999ft 197kts
22-Sep-18 15:48 34.641224 -117.973760 262 11997ft 211kts
22-Sep-18 15:49 34.632857 -118.059243 281 11977ft 225kts
22-Sep-18 15:50 34.665317 -118.108043 313 11994ft 229kts
22-Sep-18 15:51 34.709625 -118.165546 313 11992ft 237kts
22-Sep-18 15:52 34.754956 -118.224571 313 11991ft 240kts
22-Sep-18 15:53 34.800889 -118.284492 313 11991ft 243kts
22-Sep-18 15:54 34.847157 -118.344958 313 11989ft 244kts
22-Sep-18 15:55 34.892699 -118.404581 313 11989ft 241kts
22-Sep-18 15:56 34.938156 -118.464199 313 11989ft 238kts
22-Sep-18 15:57 34.982114 -118.521920 313 11986ft 227kts
22-Sep-18 15:58 35.024205 -118.576836 317 11983ft 215kts
22-Sep-18 15:59 35.069156 -118.627196 317 11529ft 224kts
22-Sep-18 16:00 35.115021 -118.679313 309 10959ft 233kts
22-Sep-18 16:01 35.132033 -118.755828 282 9915ft 235kts
22-Sep-18 16:02 35.146019 -118.833471 282 8837ft 233kts
22-Sep-18 16:03 35.159932 -118.910586 282 7759ft 231kts
22-Sep-18 16:04 35.173654 -118.986521 282 6688ft 228kts
22-Sep-18 16:05 35.187963 -119.062054 292 5579ft 228kts
22-Sep-18 16:06 35.231852 -119.048727 80 4584ft 213kts
22-Sep-18 16:07 35.240535 -118.983272 80 4559ft 178kts
22-Sep-18 16:08 35.248255 -118.924719 80 4409ft 179kts
22-Sep-18 16:09 35.256784 -118.860053 80 3479ft 200kts
22-Sep-18 16:10 35.274061 -118.797009 21 2447ft 204kts
22-Sep-18 16:11 35.302083 -118.835707 282 2494ft 163kts
22-Sep-18 16:12 35.311512 -118.886314 282 2494ft 142kts
22-Sep-18 16:13 35.326880 -118.927103 314 2392ft 132kts
22-Sep-18 16:14 35.351464 -118.956862 315 2375ft 126kts
22-Sep-18 16:15 35.378421 -118.989292 315 2273ft 141kts
22-Sep-18 16:16 35.407040 -119.023710 317 1650ft 153kts
22-Sep-18 16:17 35.438104 -119.061006 314 503ft 125kts
22-Sep-18 16:18 35.446768 -119.070557 45 503ft 7kts
22-Sep-18 16:19 35.446788 -119.070533 45 503ft 0kts
22-Sep-18 16:20 35.443777 -119.066011 135 503ft 35kts
22-Sep-18 16:21 35.434820 -119.055081 131 503ft 50kts
22-Sep-18 16:22 35.429048 -119.048220 137 503ft 8kts
22-Sep-18 16:23 35.425362 -119.042852 184 503ft 13kts
22-Sep-18 16:24 35.426035 -119.042594 357 503ft 0kts
22-Sep-18 16:25 35.426035 -119.042594 357 503ft 0kts
22-Sep-18 16:26 35.426035 -119.042594 357 503ft 0kts
22-Sep-18 16:27 35.426035 -119.042594 357 503ft 0kts
22-Sep-18 16:28 35.426035 -119.042594 357 503ft 0kts
22-Sep-18 16:29 35.426035 -119.042594 357 503ft 0kts
22-Sep-18 16:30 35.426035 -119.042594 357 503ft 0kts
22-Sep-18 16:31 35.426035 -119.042594 357 503ft 0kts
22-Sep-18 16:32 35.426035 -119.042594 357 503ft 0kts
22-Sep-18 16:33 35.426035 -119.042594 357 503ft 0kts

Navigation Log

Ident Type
Flight plan parsing failed, navigation log unavailable